Time;durP1;ratioP1;P1;durP2;ratioP2;P2;SDS_P1;SDS_P2;PMS_P1;PMS_P2;Temp;Humidity;BMP_temperature;BMP_pressure;BME280_temperature;BME280_humidity;BME280_pressure;Samples;Min_cycle;Max_cycle;Signal;HPM_P1;HPM_P2
2021/01/13 00:00:27;;;;;;;41.03;36.63;;;18.30;42.10;;;;;;5096059;28;20024;-53
2021/01/13 00:02:53;;;;;;;39.80;35.70;;;18.30;42.10;;;;;;5096595;28;20035;-53
2021/01/13 00:05:19;;;;;;;42.60;38.00;;;18.30;42.20;;;;;;5096354;28;20032;-53
2021/01/13 00:07:48;;;;;;;38.55;34.53;;;18.30;42.20;;;;;;5096474;28;20115;-52
2021/01/13 00:10:15;;;;;;;38.95;34.83;;;18.30;42.10;;;;;;5094665;28;20085;-53
2021/01/13 00:12:41;;;;;;;38.25;34.40;;;18.30;42.10;;;;;;5095554;28;20032;-53
2021/01/13 00:15:08;;;;;;;37.75;33.78;;;18.30;42.10;;;;;;5096013;28;20355;-53
2021/01/13 00:17:35;;;;;;;38.72;33.72;;;18.20;42.00;;;;;;5093671;28;20028;-53
2021/01/13 00:20:02;;;;;;;37.38;33.38;;;18.20;42.00;;;;;;5077418;28;20024;-52
2021/01/13 00:22:28;;;;;;;35.30;31.55;;;18.20;42.00;;;;;;5095985;28;20024;-53
2021/01/13 00:24:53;;;;;;;34.63;31.10;;;18.20;42.00;;;;;;5096196;28;20016;-53
2021/01/13 00:27:21;;;;;;;35.30;31.25;;;18.20;42.00;;;;;;5096017;28;20059;-53
2021/01/13 00:29:51;;;;;;;36.03;32.42;;;18.10;41.90;;;;;;5095888;28;20032;-52
2021/01/13 00:32:18;;;;;;;33.58;29.95;;;18.10;41.90;;;;;;5095785;28;20036;-53
2021/01/13 00:34:44;;;;;;;34.75;31.08;;;18.10;41.90;;;;;;5095663;28;20024;-53
2021/01/13 00:37:11;;;;;;;32.85;29.45;;;18.10;41.90;;;;;;5096067;28;20418;-53
2021/01/13 00:39:37;;;;;;;34.03;30.33;;;18.10;41.90;;;;;;5095638;28;20044;-53
2021/01/13 00:42:04;;;;;;;33.72;30.17;;;18.10;41.90;;;;;;5095642;28;20028;-53
2021/01/13 00:44:30;;;;;;;31.88;28.48;;;18.10;42.00;;;;;;5094652;28;20032;-53
2021/01/13 00:46:56;;;;;;;32.10;28.60;;;18.10;42.00;;;;;;5095497;28;20031;-53
2021/01/13 00:49:23;;;;;;;32.03;28.63;;;18.00;41.90;;;;;;5094461;28;20032;-53
2021/01/13 00:51:49;;;;;;;29.58;26.50;;;18.00;41.90;;;;;;5095350;28;20367;-53
2021/01/13 00:54:15;;;;;;;29.88;26.58;;;18.00;41.90;;;;;;5093663;28;20095;-53
2021/01/13 00:56:43;;;;;;;30.48;27.35;;;18.00;41.90;;;;;;5095290;28;20169;-53
2021/01/13 00:59:13;;;;;;;30.10;27.02;;;18.00;42.00;;;;;;5095546;28;20024;-53
2021/01/13 01:01:40;;;;;;;31.65;28.42;;;17.90;41.90;;;;;;5095291;28;20505;-55
2021/01/13 01:04:07;;;;;;;30.98;27.70;;;17.90;41.90;;;;;;5095607;28;20024;-52
2021/01/13 01:06:33;;;;;;;29.42;26.33;;;17.90;41.90;;;;;;5095558;28;20056;-53
2021/01/13 01:09:00;;;;;;;29.52;26.35;;;18.00;41.90;;;;;;5093729;28;20488;-54
2021/01/13 01:11:31;;;;;;;29.27;26.17;;;17.90;41.90;;;;;;5095006;28;20019;-54
2021/01/13 01:13:58;;;;;;;29.30;26.27;;;17.90;42.50;;;;;;5094757;28;20111;-52
2021/01/13 01:16:44;;;;;;;30.92;27.35;;;17.90;41.90;;;;;;5093672;28;20107;-53
2021/01/13 01:19:11;;;;;;;27.83;24.92;;;17.80;41.80;;;;;;5095332;28;20036;-53
2021/01/13 01:21:41;;;;;;;29.00;25.90;;;17.80;41.80;;;;;;5093531;28;20450;-53
2021/01/13 01:24:08;;;;;;;26.15;23.35;;;17.80;41.80;;;;;;5091735;28;20032;-53
2021/01/13 01:26:42;;;;;;;29.92;24.88;;;17.80;41.80;;;;;;5094479;28;20513;-53
2021/01/13 01:29:08;;;;;;;27.98;24.98;;;17.80;41.80;;;;;;5094704;28;20106;-52
2021/01/13 01:31:34;;;;;;;26.17;23.40;;;17.80;41.80;;;;;;5094405;28;20048;-53
2021/01/13 01:34:00;;;;;;;26.75;23.88;;;17.80;41.80;;;;;;5094185;28;20400;-52
2021/01/13 01:36:26;;;;;;;27.17;23.88;;;17.70;41.80;;;;;;5094735;28;20028;-53
2021/01/13 01:38:52;;;;;;;24.77;22.13;;;17.70;41.80;;;;;;5094612;28;20017;-52
2021/01/13 01:41:18;;;;;;;25.35;22.70;;;17.70;41.80;;;;;;5094743;28;20114;-53
2021/01/13 01:43:45;;;;;;;24.75;22.13;;;17.70;41.80;;;;;;5094181;28;20108;-53
2021/01/13 01:46:13;;;;;;;25.23;22.58;;;17.70;41.80;;;;;;5094085;28;20436;-53
2021/01/13 01:48:58;;;;;;;26.80;22.42;;;17.70;41.80;;;;;;5093236;28;20028;-52
2021/01/13 01:51:26;;;;;;;24.52;21.55;;;17.60;41.80;;;;;;5094057;28;20493;-53
2021/01/13 01:54:13;;;;;;;24.60;21.92;;;17.60;41.80;;;;;;5093766;28;20038;-53
2021/01/13 01:56:41;;;;;;;24.05;21.65;;;17.60;41.80;;;;;;5093782;28;20024;-53
2021/01/13 01:59:15;;;;;;;24.40;21.85;;;17.60;41.80;;;;;;5094039;28;20554;-53
2021/01/13 02:01:48;;;;;;;25.00;22.33;;;17.60;41.90;;;;;;5093783;28;20039;-53
2021/01/13 02:04:31;;;;;;;25.27;22.60;;;17.60;41.90;;;;;;5094214;28;20024;-52
2021/01/13 02:07:27;;;;;;;24.95;22.20;;;17.50;41.90;;;;;;5093747;28;20032;-52
2021/01/13 02:09:53;;;;;;;24.58;22.02;;;17.50;41.90;;;;;;5093966;28;20134;-52
2021/01/13 02:12:26;;;;;;;24.67;21.60;;;17.50;42.00;;;;;;5093755;28;20024;-53
2021/01/13 02:14:53;;;;;;;25.17;22.55;;;17.50;42.00;;;;;;5094119;28;20028;-52
2021/01/13 02:17:28;;;;;;;24.63;21.98;;;17.50;42.10;;;;;;5093558;28;20023;-53
2021/01/13 02:20:09;;;;;;;24.60;22.08;;;17.40;42.00;;;;;;5093899;28;20058;-53
2021/01/13 02:23:16;;;;;;;24.13;21.65;;;17.40;42.00;;;;;;5093788;28;20024;-53
2021/01/13 02:26:19;;;;;;;25.38;21.48;;;17.40;42.00;;;;;;5093444;28;20431;-53
2021/01/13 02:29:03;;;;;;;23.55;21.10;;;17.40;42.00;;;;;;5093862;28;20028;-53
2021/01/13 02:31:43;;;;;;;22.27;19.00;;;17.40;42.00;;;;;;5073605;28;20083;-53
2021/01/13 02:34:35;;;;;;;23.30;20.88;;;17.40;42.00;;;;;;5084961;28;20026;-53
2021/01/13 02:37:16;;;;;;;21.13;18.83;;;17.30;41.90;;;;;;5093728;28;20020;-53
2021/01/13 02:39:44;;;;;;;21.25;19.13;;;17.30;41.90;;;;;;5091363;28;20054;-53
2021/01/13 02:42:21;;;;;;;21.92;19.63;;;17.30;42.00;;;;;;5093488;28;20099;-52
2021/01/13 02:45:03;;;;;;;20.10;18.00;;;17.30;42.00;;;;;;5093248;28;20114;-50
2021/01/13 02:47:52;;;;;;;21.13;18.92;;;17.20;41.90;;;;;;5092476;28;20039;-52
2021/01/13 02:50:26;;;;;;;19.95;17.95;;;17.20;41.90;;;;;;5092236;28;20085;-52
2021/01/13 02:53:16;;;;;;;22.08;19.67;;;17.20;41.90;;;;;;5092273;28;20385;-52
2021/01/13 02:55:47;;;;;;;20.20;18.08;;;17.20;42.00;;;;;;5092643;28;20036;-53
2021/01/13 02:58:18;;;;;;;19.52;17.50;;;17.20;42.00;;;;;;5093160;28;20024;-52
2021/01/13 03:00:44;;;;;;;;;;;17.20;42.00;;;;;;5093544;28;20378;-52
2021/01/13 03:03:11;;;;;;;19.60;17.65;;;17.20;42.00;;;;;;5093277;28;19914;-53
2021/01/13 03:05:37;;;;;;;20.80;18.60;;;17.20;41.90;;;;;;5091998;28;20032;-53
2021/01/13 03:08:07;;;;;;;20.33;18.20;;;17.20;41.90;;;;;;5093315;28;20089;-53
2021/01/13 03:10:37;;;;;;;19.13;17.13;;;17.10;42.00;;;;;;5091784;28;20024;-52
2021/01/13 03:13:05;;;;;;;19.73;17.52;;;17.10;42.00;;;;;;5095173;28;20035;-52
2021/01/13 03:15:33;;;;;;;19.52;17.15;;;17.10;42.10;;;;;;5096156;28;20059;-52
2021/01/13 03:18:07;;;;;;;19.05;17.10;;;17.00;42.60;;;;;;5097594;28;20063;-52
2021/01/13 03:20:58;;;;;;;19.17;17.08;;;17.00;42.10;;;;;;5097496;28;20024;-52
2021/01/13 03:23:24;;;;;;;18.98;17.00;;;17.00;42.20;;;;;;5097096;28;20042;-52
2021/01/13 03:25:54;;;;;;;19.35;17.27;;;17.00;42.10;;;;;;5097453;28;20474;-52
2021/01/13 03:28:24;;;;;;;18.08;16.30;;;17.00;42.20;;;;;;5095640;28;20545;-52
2021/01/13 03:30:52;;;;;;;18.17;16.20;;;17.00;42.20;;;;;;5097527;28;20054;-52
2021/01/13 03:33:42;;;;;;;18.15;16.25;;;17.00;42.20;;;;;;5096957;28;20219;-52
2021/01/13 03:36:18;;;;;;;18.60;16.60;;;16.90;42.10;;;;;;5097226;28;20085;-52
2021/01/13 03:39:04;;;;;;;18.05;16.17;;;17.00;42.20;;;;;;5097054;28;20027;-52
2021/01/13 03:41:54;;;;;;;17.80;15.90;;;16.90;42.20;;;;;;5095461;28;21229;-52
2021/01/13 03:44:31;;;;;;;18.83;16.83;;;16.90;42.20;;;;;;5091570;28;20101;-52
2021/01/13 03:47:29;;;;;;;19.88;17.77;;;16.90;42.30;;;;;;5095616;28;20373;-52
2021/01/13 03:50:13;;;;;;;19.45;16.83;;;16.90;42.30;;;;;;5097042;28;20489;-52
2021/01/13 03:53:05;;;;;;;19.23;17.23;;;16.90;42.30;;;;;;5096484;28;20062;-52
2021/01/13 03:55:33;;;;;;;17.88;16.13;;;16.80;42.30;;;;;;5089846;28;20103;-52
2021/01/13 03:58:08;;;;;;;18.15;16.20;;;16.90;42.30;;;;;;5096775;28;20020;-53
2021/01/13 04:01:16;;;;;;;17.75;15.43;;;16.80;42.90;;;;;;5096776;28;20028;-52
2021/01/13 04:03:51;;;;;;;18.25;16.27;;;16.80;42.30;;;;;;5096531;28;20473;-52
2021/01/13 04:06:17;;;;;;;16.90;15.10;;;16.80;42.30;;;;;;5096446;28;20040;-52
2021/01/13 04:08:45;;;;;;;17.48;15.68;;;16.80;42.30;;;;;;5096623;28;20024;-52
2021/01/13 04:11:15;;;;;;;16.55;14.85;;;16.80;42.30;;;;;;5096938;28;20755;-52
2021/01/13 04:13:50;;;;;;;17.65;14.88;;;16.80;42.30;;;;;;5096346;28;20028;-52
2021/01/13 04:16:21;;;;;;;16.38;14.77;;;16.80;42.40;;;;;;5096557;28;20035;-52
2021/01/13 04:18:50;;;;;;;16.65;14.68;;;16.80;42.30;;;;;;5096528;28;20466;-52
2021/01/13 04:21:18;;;;;;;15.95;14.25;;;16.70;42.30;;;;;;5096408;28;20412;-52
2021/01/13 04:23:45;;;;;;;16.90;15.07;;;16.70;42.30;;;;;;5095757;28;20065;-52
2021/01/13 04:26:12;;;;;;;16.88;14.60;;;16.70;42.30;;;;;;5096433;28;20518;-52
2021/01/13 04:28:39;;;;;;;15.95;14.30;;;16.70;42.30;;;;;;5095875;28;20032;-52
2021/01/13 04:31:06;;;;;;;16.90;15.18;;;16.70;42.30;;;;;;5096214;28;20052;-52
2021/01/13 04:33:32;;;;;;;16.08;14.38;;;16.70;42.40;;;;;;5095540;28;20056;-52
2021/01/13 04:35:59;;;;;;;14.80;13.30;;;16.70;42.40;;;;;;5095810;28;20036;-52
2021/01/13 04:38:28;;;;;;;14.95;13.55;;;16.70;42.40;;;;;;5095841;28;20350;-51
2021/01/13 04:41:12;;;;;;;15.65;14.02;;;16.70;42.40;;;;;;5095602;28;20093;-53
2021/01/13 04:44:13;;;;;;;15.02;13.52;;;16.70;42.40;;;;;;5081167;28;20036;-52
2021/01/13 04:46:39;;;;;;;14.55;12.98;;;16.60;42.30;;;;;;5072805;28;20045;-51
2021/01/13 04:49:17;;;;;;;15.70;13.88;;;16.60;42.30;;;;;;5073071;28;20530;-52
2021/01/13 04:51:44;;;;;;;14.32;12.90;;;16.60;42.30;;;;;;5073207;28;20067;-52
2021/01/13 04:54:12;;;;;;;14.43;12.93;;;16.60;42.30;;;;;;5073033;28;20159;-52
2021/01/13 04:56:44;;;;;;;15.30;13.57;;;16.60;42.30;;;;;;5073796;28;20037;-52
2021/01/13 04:59:31;;;;;;;15.13;13.52;;;16.60;42.40;;;;;;5071759;28;20028;-52
2021/01/13 05:02:06;;;;;;;13.95;12.45;;;16.60;42.30;;;;;;5073435;28;20089;-52
2021/01/13 05:04:50;;;;;;;15.05;13.55;;;16.60;42.40;;;;;;5072931;28;20054;-52
2021/01/13 05:07:34;;;;;;;13.70;12.27;;;16.60;42.30;;;;;;5072950;28;20127;-52
2021/01/13 05:10:05;;;;;;;14.70;12.82;;;16.50;42.30;;;;;;5071540;28;20079;-52
2021/01/13 05:12:54;;;;;;;12.80;11.45;;;16.50;42.30;;;;;;5073201;28;20490;-52
2021/01/13 05:15:23;;;;;;;13.75;12.35;;;16.50;42.20;;;;;;5055511;28;20040;-52
2021/01/13 05:18:11;;;;;;;13.32;11.65;;;16.50;42.20;;;;;;5073418;28;20040;-51
2021/01/13 05:20:39;;;;;;;13.25;11.88;;;16.50;42.20;;;;;;5073136;28;20020;-51
2021/01/13 05:23:10;;;;;;;14.75;11.90;;;16.50;42.20;;;;;;5084209;28;20386;-51
2021/01/13 05:25:44;;;;;;;13.77;12.13;;;16.50;42.20;;;;;;5093877;28;20046;-52
2021/01/13 05:28:20;;;;;;;11.05;9.95;;;16.40;42.10;;;;;;5095016;28;20038;-53
2021/01/13 05:30:53;;;;;;;12.88;11.27;;;16.40;42.10;;;;;;5086127;28;20052;-53
2021/01/13 05:33:29;;;;;;;12.93;11.52;;;16.40;42.10;;;;;;5094791;28;20123;-52
2021/01/13 05:35:57;;;;;;;13.25;11.20;;;16.40;42.20;;;;;;5094315;28;20031;-53
2021/01/13 05:38:38;;;;;;;12.25;10.95;;;16.40;42.20;;;;;;5075624;28;20377;-51
2021/01/13 05:41:14;;;;;;;12.82;11.18;;;16.40;42.20;;;;;;5094546;28;20024;-53
2021/01/13 05:43:45;;;;;;;12.90;11.25;;;16.40;42.20;;;;;;5094230;28;20027;-53
2021/01/13 05:46:16;;;;;;;12.18;10.43;;;16.40;42.30;;;;;;5094534;28;20073;-52
2021/01/13 05:48:47;;;;;;;13.50;12.05;;;16.40;42.30;;;;;;5095162;28;20154;-52
2021/01/13 05:51:13;;;;;;;;;;;16.40;42.30;;;;;;5095230;28;20053;-52
2021/01/13 05:53:49;;;;;;;11.38;10.02;;;16.40;42.30;;;;;;5094724;28;20006;-52
2021/01/13 05:56:20;;;;;;;12.20;10.90;;;16.40;42.20;;;;;;5094170;28;20035;-52
2021/01/13 05:58:47;;;;;;;11.63;10.48;;;16.40;42.20;;;;;;5094551;28;20016;-52
2021/01/13 06:01:58;;;;;;;11.60;10.40;;;16.30;42.20;;;;;;5094158;28;20020;-52
2021/01/13 06:04:25;;;;;;;11.43;10.27;;;16.30;42.30;;;;;;5094296;28;20032;-52
2021/01/13 06:06:53;;;;;;;12.00;10.70;;;16.30;42.30;;;;;;5094309;28;20016;-52
2021/01/13 06:09:22;;;;;;;12.07;10.18;;;16.30;42.30;;;;;;5092333;28;20228;-52
2021/01/13 06:11:52;;;;;;;12.02;10.73;;;16.30;42.40;;;;;;5094252;28;20032;-52
2021/01/13 06:14:24;;;;;;;12.38;11.07;;;16.20;42.40;;;;;;5094395;28;20028;-52
2021/01/13 06:16:52;;;;;;;11.20;10.10;;;16.20;42.40;;;;;;5094008;28;20024;-52
2021/01/13 06:19:20;;;;;;;11.18;9.95;;;16.20;42.40;;;;;;5093715;28;20024;-52
2021/01/13 06:21:47;;;;;;;11.40;10.00;;;16.20;42.50;;;;;;5092668;28;20035;-52
2021/01/13 06:24:14;;;;;;;11.20;9.88;;;16.20;42.40;;;;;;5093431;28;20028;-53
2021/01/13 06:26:54;;;;;;;11.75;9.38;;;16.20;42.40;;;;;;5093806;28;20034;-52
2021/01/13 06:29:34;;;;;;;12.40;10.73;;;16.20;42.40;;;;;;5093472;28;20056;-52
2021/01/13 06:32:11;;;;;;;10.70;9.70;;;16.20;42.40;;;;;;5093870;28;20565;-52
2021/01/13 06:34:54;;;;;;;10.65;9.50;;;16.20;42.40;;;;;;5093436;28;20046;-53
2021/01/13 06:37:20;;;;;;;10.63;9.30;;;16.10;42.30;;;;;;5093727;28;20038;-52
2021/01/13 06:39:46;;;;;;;11.23;9.48;;;16.20;42.40;;;;;;5093879;28;20097;-52
2021/01/13 06:42:12;;;;;;;10.63;9.52;;;16.10;42.40;;;;;;5093235;28;20500;-53
2021/01/13 06:44:48;;;;;;;10.63;9.52;;;16.10;42.40;;;;;;5092660;28;20148;-52
2021/01/13 06:47:14;;;;;;;10.25;9.20;;;16.10;42.40;;;;;;5090665;28;20027;-53
2021/01/13 06:49:40;;;;;;;11.27;10.07;;;16.10;42.50;;;;;;5092686;28;20071;-52
2021/01/13 06:52:09;;;;;;;11.07;9.43;;;16.10;42.50;;;;;;5091217;28;20028;-52
2021/01/13 06:54:45;;;;;;;10.55;9.45;;;16.10;42.60;;;;;;5093052;28;20032;-48
2021/01/13 06:57:13;;;;;;;11.02;9.82;;;16.10;42.70;;;;;;5093515;28;20039;-48
2021/01/13 06:59:40;;;;;;;10.93;9.82;;;16.10;42.70;;;;;;5093273;28;20024;-48
2021/01/13 07:02:07;;;;;;;10.85;9.73;;;16.10;42.70;;;;;;5092843;28;20107;-48
2021/01/13 07:04:45;;;;;;;12.73;9.35;;;16.10;42.70;;;;;;5096325;28;20036;-48
2021/01/13 07:07:14;;;;;;;10.93;9.27;;;16.00;42.70;;;;;;5089308;28;20063;-48
2021/01/13 07:09:45;;;;;;;11.40;10.20;;;16.00;42.70;;;;;;5109131;28;20027;-48
2021/01/13 07:12:11;;;;;;;;;;;16.00;42.70;;;;;;5104975;28;20408;-48
2021/01/13 07:14:39;;;;;;;12.43;10.70;;;16.00;42.70;;;;;;5093783;28;19934;-48
2021/01/13 07:17:08;;;;;;;10.48;9.38;;;16.10;42.70;;;;;;5092694;28;20028;-48
2021/01/13 07:19:35;;;;;;;11.77;10.48;;;16.10;42.70;;;;;;5093041;28;20048;-48
2021/01/13 07:22:01;;;;;;;10.82;9.73;;;16.00;42.70;;;;;;5092823;28;20028;-48
2021/01/13 07:24:29;;;;;;;11.60;10.27;;;16.00;42.70;;;;;;5092628;28;20072;-48
2021/01/13 07:26:57;;;;;;;11.25;10.02;;;16.00;42.80;;;;;;5091550;28;20511;-48
2021/01/13 07:29:27;;;;;;;12.13;10.55;;;16.00;42.90;;;;;;5091592;28;20040;-49
2021/01/13 07:31:55;;;;;;;12.07;10.50;;;15.90;42.80;;;;;;5091814;28;20490;-48
2021/01/13 07:34:31;;;;;;;12.85;10.45;;;16.00;42.90;;;;;;5091558;28;20093;-49
2021/01/13 07:37:20;;;;;;;12.00;10.38;;;16.00;42.90;;;;;;5090342;28;20047;-48
2021/01/13 07:40:04;;;;;;;12.65;11.05;;;15.90;42.90;;;;;;5091878;28;20025;-48
2021/01/13 07:42:42;;;;;;;10.90;9.80;;;16.00;42.90;;;;;;5092258;28;20042;-48
2021/01/13 07:45:21;;;;;;;11.30;10.10;;;16.00;43.00;;;;;;5092124;28;20024;-48
2021/01/13 07:47:56;;;;;;;15.75;10.68;;;16.00;43.00;;;;;;5092409;28;20101;-48
2021/01/13 07:50:23;;;;;;;11.80;10.65;;;15.90;42.90;;;;;;5091846;28;20024;-49
2021/01/13 07:52:51;;;;;;;11.25;9.95;;;16.00;43.00;;;;;;5088059;28;20036;-48
2021/01/13 07:55:21;;;;;;;10.95;9.82;;;16.00;43.00;;;;;;5088580;28;20062;-48
2021/01/13 07:57:52;;;;;;;11.55;9.98;;;15.90;42.90;;;;;;5081266;28;20441;-49
2021/01/13 08:00:24;;;;;;;;;;;16.00;43.10;;;;;;5095276;28;20030;-49
2021/01/13 08:03:28;;;;;;;11.05;9.85;;;15.90;43.00;;;;;;5091880;28;19925;-48
2021/01/13 08:06:22;;;;;;;11.13;10.02;;;16.00;42.90;;;;;;5095110;28;20024;-48
2021/01/13 08:09:06;;;;;;;11.98;10.70;;;16.00;43.00;;;;;;5095676;28;20023;-48
2021/01/13 08:11:53;;;;;;;13.80;10.93;;;16.00;43.00;;;;;;5093450;28;20478;-48
2021/01/13 08:14:34;;;;;;;12.50;10.88;;;16.00;43.10;;;;;;5095461;28;20389;-48
2021/01/13 08:17:19;;;;;;;;;;;16.00;43.20;;;;;;5096545;28;20024;-47
2021/01/13 08:20:07;;;;;;;13.43;10.65;;;16.00;43.10;;;;;;5095522;28;19908;-48
2021/01/13 08:22:33;;;;;;;11.65;10.43;;;16.00;43.00;;;;;;5093612;28;20390;-48
2021/01/13 08:25:02;;;;;;;12.23;10.60;;;16.10;42.90;;;;;;5092070;28;20048;-48
2021/01/13 08:27:31;;;;;;;14.48;11.75;;;16.00;42.90;;;;;;5092896;28;20035;-48
2021/01/13 08:29:58;;;;;;;13.38;11.88;;;16.00;43.00;;;;;;5093802;28;20028;-49
2021/01/13 08:32:39;;;;;;;16.30;12.55;;;16.00;43.60;;;;;;5094909;28;20055;-49
2021/01/13 08:35:06;;;;;;;14.18;12.55;;;16.00;43.00;;;;;;5091638;28;20032;-49
2021/01/13 08:37:34;;;;;;;19.40;13.27;;;16.00;43.00;;;;;;5095418;28;20023;-48
2021/01/13 08:40:29;;;;;;;15.70;12.95;;;16.00;42.90;;;;;;5094342;28;20028;-49
2021/01/13 08:43:08;;;;;;;15.25;13.23;;;16.00;42.90;;;;;;5095539;28;20028;-48
2021/01/13 08:45:39;;;;;;;14.23;12.07;;;16.10;42.80;;;;;;5094725;28;20116;-50
2021/01/13 08:48:14;;;;;;;17.05;15.20;;;16.10;42.90;;;;;;5094131;28;20028;-49
2021/01/13 08:50:41;;;;;;;16.00;13.70;;;16.10;42.90;;;;;;5093959;28;20123;-50
2021/01/13 08:53:08;;;;;;;17.23;14.68;;;16.10;42.90;;;;;;5095668;28;20024;-47
2021/01/13 08:55:34;;;;;;;17.58;14.38;;;16.20;42.90;;;;;;5095492;28;20030;-48
2021/01/13 08:58:12;;;;;;;15.13;13.57;;;16.20;42.90;;;;;;5095408;28;20140;-49
2021/01/13 09:00:38;;;;;;;16.27;14.57;;;16.20;42.80;;;;;;5095599;28;20028;-48
2021/01/13 09:03:06;;;;;;;16.55;14.77;;;16.20;42.80;;;;;;5095268;28;20065;-49
2021/01/13 09:05:37;;;;;;;15.98;13.75;;;16.20;42.80;;;;;;5095198;28;20080;-49
2021/01/13 09:08:06;;;;;;;16.42;14.60;;;16.30;42.80;;;;;;5095196;28;20382;-49
2021/01/13 09:10:51;;;;;;;16.77;14.98;;;16.30;42.80;;;;;;5094046;28;20080;-49
2021/01/13 09:13:43;;;;;;;18.27;15.13;;;16.30;42.80;;;;;;5093977;28;20032;-50
2021/01/13 09:16:25;;;;;;;19.65;15.57;;;16.30;42.80;;;;;;5093304;28;20038;-48
2021/01/13 09:18:55;;;;;;;17.98;15.38;;;16.40;42.70;;;;;;5095099;28;20056;-48
2021/01/13 09:21:33;;;;;;;16.60;14.82;;;16.40;42.70;;;;;;5095018;28;20085;-48
2021/01/13 09:24:00;;;;;;;18.30;16.40;;;16.40;42.60;;;;;;5094889;28;20036;-49
2021/01/13 09:26:35;;;;;;;16.73;15.02;;;16.50;42.60;;;;;;5095442;28;20373;-49
2021/01/13 09:29:05;;;;;;;18.20;16.15;;;16.50;42.50;;;;;;5093340;28;20040;-49
2021/01/13 09:31:31;;;;;;;17.75;14.60;;;16.50;42.50;;;;;;5094697;28;20048;-48
2021/01/13 09:33:58;;;;;;;16.73;13.80;;;16.60;42.50;;;;;;5094422;28;20028;-48
2021/01/13 09:36:24;;;;;;;17.73;15.07;;;16.60;42.40;;;;;;5094457;28;20024;-49
2021/01/13 09:39:10;;;;;;;17.55;14.65;;;16.70;42.90;;;;;;5093428;28;20051;-48
2021/01/13 09:41:40;;;;;;;17.08;14.35;;;16.70;42.20;;;;;;5094715;28;20024;-49
2021/01/13 09:44:13;;;;;;;16.80;14.20;;;16.80;42.00;;;;;;5093216;28;20028;-49
2021/01/13 09:46:40;;;;;;;17.27;14.45;;;16.90;41.90;;;;;;5093361;28;20063;-49
2021/01/13 09:49:09;;;;;;;16.38;13.82;;;16.90;41.80;;;;;;5093577;28;20031;-49
2021/01/13 09:51:37;;;;;;;15.85;14.20;;;17.00;41.80;;;;;;5094252;28;20110;-49
2021/01/13 09:54:05;;;;;;;17.15;14.10;;;17.00;41.70;;;;;;5094254;28;20115;-48
2021/01/13 09:56:33;;;;;;;30.23;27.02;;;17.00;41.60;;;;;;5093126;28;20595;-47
2021/01/13 09:59:05;;;;;;;28.58;23.67;;;17.00;42.40;;;;;;5094439;28;20032;-48
2021/01/13 10:01:36;;;;;;;26.88;21.92;;;17.00;42.30;;;;;;5094378;28;20035;-49
2021/01/13 10:04:12;;;;;;;25.88;22.60;;;17.00;42.10;;;;;;5094338;28;20082;-49
2021/01/13 10:06:42;;;;;;;28.23;21.73;;;17.10;42.20;;;;;;5094159;28;20035;-48
2021/01/13 10:09:13;;;;;;;;;;;17.10;42.00;;;;;;5094571;28;20031;-48
2021/01/13 10:11:40;;;;;;;24.90;22.33;;;17.10;43.00;;;;;;5094322;28;19911;-50
2021/01/13 10:14:07;;;;;;;26.65;22.95;;;17.20;42.70;;;;;;5094135;28;20034;-50
2021/01/13 10:16:40;;;;;;;24.00;20.50;;;17.20;42.80;;;;;;5092635;28;20028;-50
2021/01/13 10:19:07;;;;;;;20.52;16.98;;;17.20;42.80;;;;;;5093820;28;20024;-49
2021/01/13 10:21:35;;;;;;;23.55;15.30;;;17.20;42.60;;;;;;5093363;28;20028;-50
2021/01/13 10:24:11;;;;;;;17.75;13.23;;;17.20;42.60;;;;;;5082336;28;20063;-50
2021/01/13 10:26:40;;;;;;;20.10;12.57;;;17.20;42.10;;;;;;5079060;28;20106;-50
2021/01/13 10:29:08;;;;;;;17.02;10.88;;;17.30;42.20;;;;;;5090667;28;20358;-50
2021/01/13 10:31:34;;;;;;;16.13;10.07;;;17.30;42.00;;;;;;5093046;28;20044;-51
2021/01/13 10:34:00;;;;;;;13.88;11.18;;;17.40;41.80;;;;;;5092741;28;20122;-50
2021/01/13 10:36:31;;;;;;;12.35;10.23;;;17.40;41.40;;;;;;5093283;28;20094;-49
2021/01/13 10:39:05;;;;;;;13.20;10.00;;;17.40;41.00;;;;;;5093528;28;20044;-50
2021/01/13 10:41:34;;;;;;;11.90;10.07;;;17.50;40.90;;;;;;5093680;28;20023;-50
2021/01/13 10:44:06;;;;;;;14.32;10.95;;;17.60;40.70;;;;;;5093588;28;20024;-51
2021/01/13 10:46:45;;;;;;;12.95;10.30;;;17.60;40.50;;;;;;5092392;28;20028;-51
2021/01/13 10:49:23;;;;;;;13.52;9.23;;;17.70;40.10;;;;;;5093506;28;20503;-50
2021/01/13 10:51:57;;;;;;;12.82;9.93;;;17.80;39.80;;;;;;5093137;28;20032;-50
2021/01/13 10:54:34;;;;;;;13.05;10.20;;;17.80;39.80;;;;;;5093166;28;20495;-49
2021/01/13 10:57:05;;;;;;;166.95;145.40;;;17.90;39.70;;;;;;5093163;28;20412;-50
2021/01/13 10:59:32;;;;;;;58.78;52.35;;;18.00;39.80;;;;;;5093080;28;20107;-50
2021/01/13 11:02:01;;;;;;;42.63;34.97;;;18.00;39.60;;;;;;5092969;28;20025;-50
2021/01/13 11:04:28;;;;;;;37.78;31.75;;;18.10;39.30;;;;;;5092954;28;20036;-50
2021/01/13 11:07:08;;;;;;;26.20;21.35;;;18.20;39.50;;;;;;5091807;28;20115;-51
2021/01/13 11:09:43;;;;;;;18.20;14.87;;;18.30;39.90;;;;;;5093177;28;20028;-53
2021/01/13 11:12:10;;;;;;;19.48;14.40;;;18.40;39.60;;;;;;5081472;28;20028;-51
2021/01/13 11:14:43;;;;;;;16.55;13.32;;;18.60;39.60;;;;;;5093089;28;20082;-50
2021/01/13 11:17:12;;;;;;;12.85;11.25;;;18.70;38.90;;;;;;5083205;28;20396;-51
2021/01/13 11:19:41;;;;;;;14.63;10.65;;;18.90;38.80;;;;;;5091501;28;20020;-51
2021/01/13 11:22:07;;;;;;;14.60;9.50;;;19.00;38.90;;;;;;5093219;28;20028;-52
2021/01/13 11:24:45;;;;;;;12.65;8.40;;;19.20;39.10;;;;;;5092986;28;20028;-52
2021/01/13 11:27:19;;;;;;;10.45;8.38;;;19.50;39.00;;;;;;5092858;28;20024;-53
2021/01/13 11:29:47;;;;;;;11.68;8.18;;;19.80;38.40;;;;;;5093071;28;20068;-53
2021/01/13 11:32:19;;;;;;;20.70;16.92;;;20.40;39.10;;;;;;5108277;28;20044;-54
2021/01/13 11:34:53;;;;;;;21.52;18.17;;;21.10;38.10;;;;;;5095564;28;20028;-53
2021/01/13 11:37:26;;;;;;;16.67;13.75;;;22.10;37.10;;;;;;5096298;28;20035;-54
2021/01/13 11:40:24;;;;;;;11.93;10.07;;;23.10;35.90;;;;;;5096748;28;20054;-55
2021/01/13 11:43:08;;;;;;;10.05;7.50;;;24.20;34.70;;;;;;5096901;28;20047;-55
2021/01/13 11:45:45;;;;;;;7.30;6.10;;;25.30;32.80;;;;;;5096403;28;20028;-55
2021/01/13 11:48:15;;;;;;;7.28;6.28;;;26.30;30.00;;;;;;5096644;28;20034;-54
2021/01/13 11:50:46;;;;;;;8.88;7.28;;;27.10;30.10;;;;;;5096372;28;20035;-54
2021/01/13 11:53:20;;;;;;;8.45;6.88;;;27.80;29.30;;;;;;5095234;28;20039;-54
2021/01/13 11:55:46;;;;;;;11.20;7.80;;;28.50;27.00;;;;;;5096165;28;20024;-54
2021/01/13 11:58:16;;;;;;;7.88;7.03;;;29.10;26.80;;;;;;5096446;28;20378;-54
2021/01/13 12:00:43;;;;;;;9.15;8.25;;;29.40;27.00;;;;;;5096151;28;20382;-54
2021/01/13 12:03:18;;;;;;;8.45;6.75;;;29.80;27.80;;;;;;5094475;28;20035;-56
2021/01/13 12:05:45;;;;;;;12.52;11.32;;;30.20;26.90;;;;;;5095893;28;20024;-56
2021/01/13 12:08:13;;;;;;;10.55;8.20;;;30.60;27.10;;;;;;5096159;28;20024;-56
2021/01/13 12:10:43;;;;;;;11.50;7.47;;;31.10;26.30;;;;;;5096185;28;20149;-57
2021/01/13 12:13:21;;;;;;;7.68;6.88;;;31.30;24.10;;;;;;5094532;28;20024;-56
2021/01/13 12:15:58;;;;;;;6.85;6.15;;;31.40;25.10;;;;;;5095660;28;20028;-56
2021/01/13 12:18:29;;;;;;;6.78;6.10;;;31.70;25.10;;;;;;5085148;28;20051;-54
2021/01/13 12:21:01;;;;;;;9.95;8.95;;;31.90;24.80;;;;;;5095698;28;20023;-54
2021/01/13 12:23:38;;;;;;;10.40;7.63;;;32.20;25.40;;;;;;5095722;28;20153;-54
2021/01/13 12:26:19;;;;;;;11.20;10.13;;;32.50;25.20;;;;;;5095413;28;20390;-54
2021/01/13 12:28:48;;;;;;;7.20;5.55;;;32.90;25.50;;;;;;5095832;28;20028;-51
2021/01/13 12:31:15;;;;;;;7.97;7.17;;;33.20;24.20;;;;;;5096334;28;20091;-55
2021/01/13 12:33:56;;;;;;;11.48;8.05;;;33.50;24.10;;;;;;5075507;28;20203;-55
2021/01/13 12:36:27;;;;;;;6.97;5.40;;;33.80;24.70;;;;;;5075388;28;20543;-54
2021/01/13 12:38:55;;;;;;;4.70;4.30;;;34.00;23.50;;;;;;5075557;28;20033;-54
2021/01/13 12:41:23;;;;;;;5.40;3.78;;;34.20;24.00;;;;;;5075293;28;20033;-54
2021/01/13 12:43:50;;;;;;;4.60;3.80;;;34.30;24.50;;;;;;5075349;28;20032;-54
2021/01/13 12:46:32;;;;;;;4.40;3.72;;;34.50;24.70;;;;;;5073937;28;20025;-54
2021/01/13 12:48:59;;;;;;;10.95;6.75;;;34.40;24.70;;;;;;5075123;28;20386;-54
2021/01/13 12:51:27;;;;;;;10.05;7.70;;;34.40;24.80;;;;;;5074636;28;20127;-53
2021/01/13 12:53:57;;;;;;;11.82;8.18;;;34.40;24.70;;;;;;5072738;28;20035;-53
2021/01/13 12:56:24;;;;;;;;;;;34.20;24.40;;;;;;5074930;28;20020;-52
2021/01/13 12:58:51;;;;;;;9.63;6.63;;;33.90;25.20;;;;;;5073932;28;19908;-54